Time;durP1;ratioP1;P1;durP2;ratioP2;P2;SDS_P1;SDS_P2;PMS_P1;PMS_P2;Temp;Humidity;BMP_temperature;BMP_pressure;BME280_temperature;BME280_humidity;BME280_pressure;Samples;Min_cycle;Max_cycle;Signal;HPM_P1;HPM_P2
2023/05/15 00:02:11;;;;;;;2.80;2.60;;;13.00;73.90;;;;;;934271;150;27330;-75
2023/05/15 00:04:37;;;;;;;3.00;2.70;;;13.00;73.90;;;;;;918030;152;27381;-76
2023/05/15 00:07:04;;;;;;;3.03;2.13;;;13.00;74.00;;;;;;920252;151;27391;-76
2023/05/15 00:09:31;;;;;;;2.70;2.50;;;12.90;74.00;;;;;;928009;152;27429;-76
2023/05/15 00:11:57;;;;;;;2.87;2.63;;;12.80;74.20;;;;;;946182;151;27332;-76
2023/05/15 00:14:24;;;;;;;5.70;2.93;;;12.80;74.40;;;;;;945898;151;27303;-76
2023/05/15 00:16:50;;;;;;;3.37;2.87;;;12.80;74.70;;;;;;945538;148;27376;-76
2023/05/15 00:19:17;;;;;;;3.10;2.80;;;12.70;74.80;;;;;;946548;151;27353;-76
2023/05/15 00:21:44;;;;;;;3.10;2.90;;;12.70;75.00;;;;;;946497;151;27296;-76
2023/05/15 00:24:10;;;;;;;3.33;3.03;;;12.60;75.10;;;;;;946122;151;27307;-76
2023/05/15 00:26:37;;;;;;;3.07;2.87;;;12.60;75.20;;;;;;946334;151;27307;-76
2023/05/15 00:29:03;;;;;;;3.13;2.73;;;12.50;75.30;;;;;;945936;148;27377;-75
2023/05/15 00:31:32;;;;;;;2.77;2.57;;;12.50;75.70;;;;;;927889;152;27475;-76
2023/05/15 00:33:57;;;;;;;4.87;2.50;;;12.50;75.60;;;;;;927390;152;27366;-76
2023/05/15 00:36:24;;;;;;;2.87;2.67;;;12.50;75.60;;;;;;946275;151;27297;-76
2023/05/15 00:38:50;;;;;;;3.43;2.60;;;12.40;75.70;;;;;;945413;151;27328;-76
2023/05/15 00:41:16;;;;;;;4.40;3.10;;;12.30;75.70;;;;;;945789;151;27368;-76
2023/05/15 00:43:43;;;;;;;2.83;2.63;;;12.30;75.80;;;;;;945487;151;27326;-76
2023/05/15 00:46:09;;;;;;;2.50;2.30;;;12.30;75.90;;;;;;946897;148;27326;-76
2023/05/15 00:48:36;;;;;;;2.50;2.40;;;12.20;76.00;;;;;;930364;151;27377;-76
2023/05/15 00:51:03;;;;;;;3.20;2.83;;;12.20;76.20;;;;;;935878;151;27372;-76
2023/05/15 00:53:29;;;;;;;3.10;2.80;;;12.10;76.20;;;;;;930012;151;27469;-76
2023/05/15 00:55:56;;;;;;;3.67;3.10;;;12.10;76.30;;;;;;924339;151;27485;-76
2023/05/15 00:58:22;;;;;;;3.63;3.33;;;12.00;76.40;;;;;;929418;151;27385;-76
2023/05/15 01:00:49;;;;;;;4.17;3.37;;;12.00;76.70;;;;;;934709;149;27290;-76
2023/05/15 01:03:15;;;;;;;3.67;3.30;;;11.90;76.80;;;;;;929766;151;27393;-76
2023/05/15 01:05:42;;;;;;;3.30;3.07;;;11.90;76.90;;;;;;928271;151;27494;-76
2023/05/15 01:08:29;;;;;;;4.00;3.20;;;11.90;77.20;;;;;;947916;148;27523;-76
2023/05/15 01:10:53;;;;;;;3.47;3.20;;;11.80;77.40;;;;;;935825;150;27819;-76
2023/05/15 01:13:20;;;;;;;3.07;2.87;;;11.80;77.40;;;;;;935679;150;27496;-76
2023/05/15 01:15:46;;;;;;;3.30;2.97;;;11.70;77.70;;;;;;928446;150;27704;-76
2023/05/15 01:18:13;;;;;;;2.90;2.57;;;11.70;77.80;;;;;;935126;150;27368;-76
2023/05/15 01:20:51;;;;;;;3.83;2.93;;;11.70;78.00;;;;;;950564;148;27314;-76
2023/05/15 01:23:18;;;;;;;2.70;2.50;;;11.60;78.10;;;;;;931806;149;27334;-76
2023/05/15 01:25:53;;;;;;;2.63;2.43;;;11.60;78.20;;;;;;928888;150;28021;-76
2023/05/15 01:28:23;;;;;;;2.90;2.60;;;11.60;78.50;;;;;;933198;151;27356;-76
2023/05/15 01:30:49;;;;;;;3.10;2.90;;;11.50;78.70;;;;;;933327;150;27385;-75
2023/05/15 01:33:24;;;;;;;3.87;2.80;;;11.50;78.90;;;;;;941623;150;27445;-75
2023/05/15 01:35:57;;;;;;;2.73;2.53;;;11.40;78.30;;;;;;952118;148;27327;-76
2023/05/15 01:38:26;;;;;;;3.00;2.63;;;11.40;79.10;;;;;;951754;148;27443;-76
2023/05/15 01:40:53;;;;;;;3.00;2.80;;;11.40;79.20;;;;;;934322;150;27451;-76
2023/05/15 01:43:19;;;;;;;2.80;2.60;;;11.40;79.60;;;;;;933821;150;27391;-76
2023/05/15 01:45:46;;;;;;;3.17;2.97;;;11.30;79.60;;;;;;935517;150;27337;-76
2023/05/15 01:48:13;;;;;;;3.13;2.93;;;11.30;79.90;;;;;;932341;151;27988;-76
2023/05/15 01:50:39;;;;;;;3.00;2.80;;;11.30;80.00;;;;;;949490;151;27440;-76
2023/05/15 01:53:06;;;;;;;3.10;2.80;;;11.20;80.20;;;;;;931875;151;27388;-76
2023/05/15 01:55:32;;;;;;;2.80;2.60;;;11.20;80.30;;;;;;935405;150;27438;-76
2023/05/15 01:57:59;;;;;;;3.00;2.80;;;11.20;80.60;;;;;;934469;150;27334;-75
2023/05/15 02:00:26;;;;;;;4.07;3.17;;;11.20;81.00;;;;;;932577;151;27446;-75
2023/05/15 02:02:52;;;;;;;3.47;3.20;;;11.10;81.10;;;;;;952316;148;27386;-75
2023/05/15 02:05:19;;;;;;;3.10;2.90;;;11.10;81.30;;;;;;952133;148;27455;-75
2023/05/15 02:07:45;;;;;;;2.80;2.60;;;11.10;81.30;;;;;;951683;148;27393;-75
2023/05/15 02:10:12;;;;;;;3.40;3.10;;;11.10;81.50;;;;;;947946;148;27380;-75
2023/05/15 02:12:41;;;;;;;3.20;3.00;;;11.10;81.70;;;;;;947188;148;27308;-75
2023/05/15 02:15:11;;;;;;;4.53;3.43;;;11.10;81.90;;;;;;947512;148;27359;-74
2023/05/15 02:17:37;;;;;;;3.17;2.97;;;11.00;82.10;;;;;;947125;149;27340;-74
2023/05/15 02:20:07;;;;;;;3.00;2.80;;;11.00;82.20;;;;;;947395;148;27433;-74
2023/05/15 02:22:30;;;;;;;4.93;3.30;;;11.00;82.50;;;;;;945697;148;27375;-74
2023/05/15 02:24:57;;;;;;;3.30;3.07;;;11.00;82.80;;;;;;947418;149;27366;-74
2023/05/15 02:27:26;;;;;;;4.80;3.10;;;11.00;83.00;;;;;;929979;151;27298;-74
2023/05/15 02:30:17;;;;;;;4.73;3.50;;;10.90;83.30;;;;;;946951;148;27449;-74
2023/05/15 02:32:50;;;;;;;3.50;3.20;;;10.90;83.60;;;;;;924653;151;27392;-75
2023/05/15 02:35:34;;;;;;;3.80;3.50;;;10.90;83.50;;;;;;924542;151;27471;-75
2023/05/15 02:38:01;;;;;;;3.87;3.53;;;10.90;83.90;;;;;;931015;151;27330;-75
2023/05/15 02:40:27;;;;;;;3.10;2.90;;;10.90;84.00;;;;;;926781;152;27410;-75
2023/05/15 02:42:54;;;;;;;3.20;3.00;;;10.80;84.20;;;;;;927633;152;27436;-75
2023/05/15 02:45:20;;;;;;;3.50;3.20;;;10.80;84.50;;;;;;945882;151;27394;-75
2023/05/15 02:47:49;;;;;;;3.60;3.30;;;10.80;84.70;;;;;;945932;151;27340;-76
2023/05/15 02:50:14;;;;;;;3.77;3.23;;;10.70;84.80;;;;;;946068;151;27397;-75
2023/05/15 02:52:40;;;;;;;3.57;3.23;;;10.70;85.10;;;;;;946696;151;27377;-75
2023/05/15 02:55:07;;;;;;;3.57;3.27;;;10.70;85.40;;;;;;946190;151;27478;-75
2023/05/15 02:57:34;;;;;;;3.00;2.80;;;10.70;85.70;;;;;;945898;150;27477;-75
2023/05/15 03:00:00;;;;;;;3.13;2.93;;;10.60;86.00;;;;;;945396;148;27344;-75
2023/05/15 03:02:27;;;;;;;3.30;3.10;;;10.60;86.40;;;;;;945747;148;27448;-75
2023/05/15 03:04:53;;;;;;;3.47;3.13;;;10.60;86.80;;;;;;945577;151;27408;-76
2023/05/15 03:07:20;;;;;;;3.50;3.20;;;10.60;87.10;;;;;;946188;151;27460;-76
2023/05/15 03:09:47;;;;;;;3.40;3.10;;;10.60;87.40;;;;;;943939;151;27430;-75
2023/05/15 03:12:13;;;;;;;3.30;3.03;;;10.60;87.80;;;;;;918677;152;27463;-75
2023/05/15 03:14:40;;;;;;;3.00;2.70;;;10.60;88.00;;;;;;912285;153;27352;-76
2023/05/15 03:17:06;;;;;;;3.13;2.93;;;10.60;88.00;;;;;;935422;149;27383;-75
2023/05/15 03:19:33;;;;;;;3.33;3.03;;;10.50;88.10;;;;;;935142;149;27365;-75
2023/05/15 03:21:59;;;;;;;3.83;3.53;;;10.50;88.20;;;;;;918272;152;28546;-75
2023/05/15 03:24:26;;;;;;;4.00;3.40;;;10.50;88.40;;;;;;911792;152;27441;-75
2023/05/15 03:26:53;;;;;;;3.03;2.83;;;10.50;88.70;;;;;;920164;152;27447;-76
2023/05/15 03:29:19;;;;;;;3.30;3.10;;;10.40;88.90;;;;;;918524;152;27391;-76
2023/05/15 03:31:46;;;;;;;3.10;2.90;;;10.40;89.10;;;;;;918292;152;27391;-76
2023/05/15 03:34:12;;;;;;;3.80;3.50;;;10.40;89.30;;;;;;916371;152;27437;-75
2023/05/15 03:36:39;;;;;;;3.13;2.93;;;10.30;89.50;;;;;;912356;153;27457;-75
2023/05/15 03:39:06;;;;;;;3.40;3.10;;;10.30;89.70;;;;;;933858;149;27385;-76
2023/05/15 03:41:32;;;;;;;2.83;2.63;;;10.30;90.00;;;;;;912293;152;27424;-76
2023/05/15 03:43:59;;;;;;;6.87;3.80;;;10.30;90.20;;;;;;911948;153;27350;-75
2023/05/15 03:46:25;;;;;;;4.37;3.43;;;10.20;90.50;;;;;;934769;149;27386;-75
2023/05/15 03:48:53;;;;;;;3.77;3.40;;;10.20;90.80;;;;;;916878;152;27442;-76
2023/05/15 03:51:18;;;;;;;3.30;3.00;;;10.20;91.20;;;;;;911761;153;27507;-75
2023/05/15 03:53:45;;;;;;;4.27;3.83;;;10.20;91.40;;;;;;934481;150;27338;-75
2023/05/15 03:56:12;;;;;;;3.90;3.50;;;10.30;91.60;;;;;;934018;150;27315;-75
2023/05/15 03:58:38;;;;;;;4.90;3.60;;;10.30;91.80;;;;;;935624;149;27337;-76
2023/05/15 04:01:05;;;;;;;3.77;3.37;;;10.30;91.90;;;;;;935382;149;27465;-75
2023/05/15 04:03:31;;;;;;;6.80;3.67;;;10.40;92.10;;;;;;934426;149;27392;-75
2023/05/15 04:05:58;;;;;;;5.60;3.50;;;10.40;92.20;;;;;;934868;149;27363;-76
2023/05/15 04:08:25;;;;;;;4.13;3.73;;;10.40;92.30;;;;;;934531;149;27331;-76
2023/05/15 04:10:51;;;;;;;14.37;3.87;;;10.40;92.30;;;;;;925884;151;27405;-75
2023/05/15 04:13:18;;;;;;;10.30;3.97;;;10.50;92.40;;;;;;947162;148;27760;-76
2023/05/15 04:15:45;;;;;;;6.40;3.53;;;10.50;92.50;;;;;;930117;151;27460;-75
2023/05/15 04:18:11;;;;;;;3.50;3.20;;;10.50;92.70;;;;;;931356;150;27948;-76
2023/05/15 04:20:38;;;;;;;3.40;3.10;;;10.50;92.90;;;;;;947709;148;27446;-76
2023/05/15 04:23:04;;;;;;;4.43;3.30;;;10.60;93.20;;;;;;930700;151;27475;-76
2023/05/15 04:25:31;;;;;;;2.87;2.67;;;10.60;93.50;;;;;;930666;151;27403;-75
2023/05/15 04:27:57;;;;;;;5.23;2.90;;;10.70;93.60;;;;;;924168;151;27398;-76
2023/05/15 04:30:24;;;;;;;3.07;2.60;;;10.70;93.80;;;;;;950802;148;27335;-75
2023/05/15 04:32:53;;;;;;;4.47;2.80;;;10.80;94.00;;;;;;947157;148;27383;-76
2023/05/15 04:35:20;;;;;;;3.20;2.90;;;10.90;94.50;;;;;;947815;148;27386;-76
2023/05/15 04:37:46;;;;;;;4.00;2.87;;;10.90;94.10;;;;;;930331;151;27338;-76
2023/05/15 04:40:16;;;;;;;5.63;2.90;;;11.00;94.50;;;;;;947432;148;27345;-76
2023/05/15 04:42:40;;;;;;;3.43;2.80;;;11.10;94.50;;;;;;946516;148;27436;-76
2023/05/15 04:45:06;;;;;;;5.03;3.17;;;11.20;94.80;;;;;;947041;148;27457;-76
2023/05/15 04:47:33;;;;;;;4.50;3.10;;;11.30;95.00;;;;;;947424;148;27418;-76
2023/05/15 04:49:59;;;;;;;6.83;3.20;;;11.40;95.30;;;;;;946950;148;27881;-76
2023/05/15 04:52:26;;;;;;;4.67;2.90;;;11.50;95.50;;;;;;946800;148;27328;-76
2023/05/15 04:54:54;;;;;;;4.70;2.67;;;11.70;95.70;;;;;;947570;148;27382;-75
2023/05/15 04:57:20;;;;;;;5.70;2.90;;;11.80;96.00;;;;;;946657;149;27363;-76
2023/05/15 04:59:46;;;;;;;8.57;3.57;;;12.00;95.90;;;;;;930085;151;27325;-76
2023/05/15 05:02:12;;;;;;;6.67;2.70;;;12.10;96.00;;;;;;930298;151;27390;-76
2023/05/15 05:04:39;;;;;;;5.40;3.17;;;12.30;95.90;;;;;;926690;152;27483;-76
2023/05/15 05:07:05;;;;;;;3.03;2.73;;;12.50;96.00;;;;;;934861;150;27806;-76
2023/05/15 05:09:32;;;;;;;7.00;3.03;;;12.70;96.50;;;;;;935762;150;27392;-76
2023/05/15 05:11:59;;;;;;;2.73;2.53;;;12.90;97.20;;;;;;929020;150;27382;-76
2023/05/15 05:14:25;;;;;;;3.40;3.10;;;13.20;97.80;;;;;;926937;152;27419;-76
2023/05/15 05:16:52;;;;;;;3.42;3.10;;;13.50;98.10;;;;;;915059;152;27383;-76
2023/05/15 05:19:18;;;;;;;3.15;2.62;;;13.90;98.20;;;;;;917825;152;27359;-76
2023/05/15 05:21:45;;;;;;;3.70;2.65;;;14.30;97.90;;;;;;911290;152;27354;-76
2023/05/15 05:24:12;;;;;;;3.17;2.58;;;14.70;97.60;;;;;;918168;152;27345;-76
2023/05/15 05:26:38;;;;;;;2.77;2.58;;;15.10;97.00;;;;;;920827;152;27442;-76
2023/05/15 05:29:05;;;;;;;2.40;2.30;;;15.60;95.80;;;;;;934247;149;27448;-76
2023/05/15 05:31:31;;;;;;;2.40;2.20;;;16.00;95.40;;;;;;919002;152;27404;-76
2023/05/15 05:33:58;;;;;;;2.00;1.90;;;16.50;95.00;;;;;;912117;153;27448;-76
2023/05/15 05:36:25;;;;;;;2.58;2.37;;;17.00;94.90;;;;;;917297;153;27383;-76
2023/05/15 05:38:51;;;;;;;2.37;2.27;;;17.50;94.40;;;;;;934882;149;27373;-76
2023/05/15 05:41:18;;;;;;;2.20;2.10;;;18.10;94.70;;;;;;934296;150;27329;-76
2023/05/15 05:43:44;;;;;;;2.65;2.45;;;18.70;93.90;;;;;;917899;152;27376;-76
2023/05/15 05:46:11;;;;;;;1.92;1.82;;;19.40;93.70;;;;;;934647;149;27370;-76
2023/05/15 05:48:37;;;;;;;2.00;1.90;;;20.10;93.30;;;;;;934493;149;27357;-76
2023/05/15 05:51:04;;;;;;;3.33;2.02;;;20.90;91.50;;;;;;934632;149;27404;-76
2023/05/15 05:53:31;;;;;;;2.10;2.00;;;21.70;89.20;;;;;;933143;149;27284;-76
2023/05/15 05:55:57;;;;;;;1.90;1.80;;;22.50;85.90;;;;;;919924;152;27345;-76
2023/05/15 05:58:24;;;;;;;1.82;1.72;;;23.30;82.90;;;;;;933478;149;27442;-76
2023/05/15 06:00:51;;;;;;;1.98;1.80;;;24.10;79.60;;;;;;917777;152;27305;-76
2023/05/15 06:03:18;;;;;;;2.30;2.20;;;24.90;75.70;;;;;;912095;153;27931;-76
2023/05/15 06:05:44;;;;;;;2.22;1.80;;;25.70;74.20;;;;;;933816;150;27346;-76
2023/05/15 06:08:10;;;;;;;2.37;2.17;;;26.50;71.80;;;;;;917471;152;27372;-76
2023/05/15 06:10:37;;;;;;;2.30;2.10;;;27.30;69.40;;;;;;935072;149;27409;-75
2023/05/15 06:13:03;;;;;;;4.87;2.12;;;27.90;67.10;;;;;;932542;151;27436;-77
2023/05/15 06:15:30;;;;;;;2.55;2.35;;;28.60;65.10;;;;;;943877;149;27336;-77
2023/05/15 06:17:57;;;;;;;2.05;1.95;;;29.20;62.90;;;;;;932435;151;27416;-77
2023/05/15 06:20:23;;;;;;;2.25;2.15;;;29.80;61.10;;;;;;932165;151;27430;-77
2023/05/15 06:22:50;;;;;;;2.08;1.98;;;30.40;59.70;;;;;;932832;151;27461;-77
2023/05/15 06:25:17;;;;;;;2.05;1.95;;;30.90;58.70;;;;;;932117;151;27378;-77
2023/05/15 06:27:43;;;;;;;2.45;2.35;;;31.30;57.30;;;;;;949215;151;27413;-77
2023/05/15 06:30:10;;;;;;;2.20;2.10;;;31.70;56.30;;;;;;949497;148;27367;-77
2023/05/15 06:32:36;;;;;;;2.30;2.20;;;32.10;55.50;;;;;;952348;148;27452;-77
2023/05/15 06:35:03;;;;;;;2.60;2.40;;;32.40;54.50;;;;;;935047;150;27464;-77
2023/05/15 06:37:29;;;;;;;2.42;2.27;;;32.70;53.70;;;;;;934833;151;27316;-77
2023/05/15 06:39:56;;;;;;;2.70;2.52;;;33.00;52.90;;;;;;952684;147;27305;-77
2023/05/15 06:42:23;;;;;;;2.75;2.55;;;33.20;52.30;;;;;;952434;148;27510;-77
2023/05/15 06:44:49;;;;;;;2.92;2.72;;;33.40;51.70;;;;;;952448;148;26360;-77
2023/05/15 06:47:16;;;;;;;2.50;2.40;;;33.60;51.10;;;;;;951463;147;27448;-77
2023/05/15 06:49:42;;;;;;;3.17;2.95;;;33.80;50.40;;;;;;951998;148;26178;-77
2023/05/15 06:52:09;;;;;;;2.83;2.62;;;33.90;49.90;;;;;;952113;148;27380;-77
2023/05/15 06:54:36;;;;;;;2.98;2.70;;;34.00;49.40;;;;;;951246;148;26291;-77
2023/05/15 06:57:02;;;;;;;2.67;2.52;;;34.10;49.30;;;;;;951661;148;26176;-77
2023/05/15 06:59:30;;;;;;;2.83;2.60;;;34.20;48.90;;;;;;949728;151;27425;-77
2023/05/15 07:01:55;;;;;;;2.92;2.72;;;34.40;48.60;;;;;;935334;150;26303;-77
2023/05/15 07:04:22;;;;;;;2.80;2.60;;;34.60;48.30;;;;;;936098;150;27461;-77
2023/05/15 07:06:49;;;;;;;2.80;2.50;;;34.80;47.90;;;;;;934240;151;26314;-77
2023/05/15 07:09:15;;;;;;;2.62;2.42;;;35.00;47.50;;;;;;952121;148;26286;-77
2023/05/15 07:11:42;;;;;;;2.50;2.30;;;35.20;47.40;;;;;;952092;148;27537;-77
2023/05/15 07:14:08;;;;;;;3.55;2.40;;;35.50;46.90;;;;;;931452;151;26431;-77
2023/05/15 07:16:35;;;;;;;2.65;2.12;;;35.80;46.30;;;;;;951730;148;26262;-77
2023/05/15 07:19:01;;;;;;;2.83;2.60;;;36.00;45.80;;;;;;934480;150;26250;-77
2023/05/15 07:21:28;;;;;;;2.33;2.22;;;36.20;45.50;;;;;;931229;151;26252;-77
2023/05/15 07:23:55;;;;;;;2.60;2.40;;;36.30;45.20;;;;;;949165;151;26240;-77
2023/05/15 07:26:21;;;;;;;2.45;2.17;;;36.60;44.60;;;;;;948443;151;26287;-77
2023/05/15 07:28:48;;;;;;;2.15;2.05;;;36.70;44.10;;;;;;949118;151;26334;-77
2023/05/15 07:31:14;;;;;;;1.82;1.72;;;37.00;44.00;;;;;;950080;148;26226;-77
2023/05/15 07:33:41;;;;;;;2.00;1.90;;;37.10;43.70;;;;;;951524;148;26202;-77
2023/05/15 07:36:08;;;;;;;2.02;1.90;;;37.40;43.50;;;;;;950914;147;26282;-77
2023/05/15 07:38:35;;;;;;;2.00;1.80;;;37.70;43.00;;;;;;934456;151;26312;-77
2023/05/15 07:41:01;;;;;;;2.15;1.95;;;38.00;42.70;;;;;;951525;147;26231;-77
2023/05/15 07:43:27;;;;;;;2.08;1.85;;;38.30;42.30;;;;;;952155;148;26183;-77
2023/05/15 07:45:54;;;;;;;1.90;1.80;;;38.60;41.70;;;;;;951315;148;26352;-78
2023/05/15 07:48:21;;;;;;;2.15;2.05;;;38.80;41.30;;;;;;951369;148;26344;-78
2023/05/15 07:50:47;;;;;;;1.62;1.55;;;39.10;40.60;;;;;;951106;148;26231;-77
2023/05/15 07:53:15;;;;;;;1.75;1.65;;;39.30;40.30;;;;;;951213;148;26180;-77
2023/05/15 07:55:40;;;;;;;1.75;1.65;;;39.60;40.00;;;;;;951149;148;26360;-77
2023/05/15 07:58:07;;;;;;;1.90;1.80;;;39.80;39.50;;;;;;952255;148;26331;-77
2023/05/15 08:00:33;;;;;;;2.52;1.70;;;40.00;39.10;;;;;;951958;148;26266;-77
2023/05/15 08:03:00;;;;;;;2.05;1.60;;;40.20;38.70;;;;;;951421;148;26260;-77
2023/05/15 08:05:28;;;;;;;2.00;1.90;;;40.40;38.50;;;;;;940238;150;26247;-78
2023/05/15 08:07:53;;;;;;;1.85;1.72;;;40.60;37.80;;;;;;932399;151;26296;-78
2023/05/15 08:10:20;;;;;;;2.90;2.22;;;40.90;37.60;;;;;;952375;147;26735;-78
2023/05/15 08:12:47;;;;;;;1.57;1.47;;;41.10;37.60;;;;;;946370;148;27837;-78
2023/05/15 08:15:13;;;;;;;2.72;1.72;;;41.30;37.30;;;;;;932031;149;26305;-78
2023/05/15 08:17:40;;;;;;;1.67;1.57;;;41.60;36.70;;;;;;917992;153;26323;-78
2023/05/15 08:20:06;;;;;;;1.82;1.72;;;41.80;36.30;;;;;;925981;151;26393;-78
2023/05/15 08:22:33;;;;;;;1.80;1.70;;;42.00;35.70;;;;;;913041;153;26286;-78
2023/05/15 08:24:59;;;;;;;2.22;1.80;;;42.20;35.30;;;;;;912708;153;26341;-78
2023/05/15 08:27:26;;;;;;;2.35;1.70;;;42.30;34.90;;;;;;912831;153;26339;-78
2023/05/15 08:29:53;;;;;;;1.80;1.50;;;42.40;34.60;;;;;;927146;151;26299;-78
2023/05/15 08:32:19;;;;;;;1.77;1.67;;;42.50;34.40;;;;;;927511;152;26303;-78
2023/05/15 08:34:46;;;;;;;1.90;1.70;;;42.70;34.30;;;;;;926933;151;26285;-78
2023/05/15 08:37:12;;;;;;;1.62;1.52;;;42.90;34.20;;;;;;926378;151;26307;-78
2023/05/15 08:39:39;;;;;;;1.62;1.50;;;43.10;33.90;;;;;;912174;153;26276;-78
2023/05/15 08:42:14;;;;;;;1.57;1.47;;;43.20;33.50;;;;;;934423;149;26265;-78
2023/05/15 08:44:41;;;;;;;2.80;1.62;;;43.40;33.40;;;;;;911389;153;26246;-78
2023/05/15 08:47:07;;;;;;;2.60;1.60;;;43.70;33.20;;;;;;934760;149;26314;-78
2023/05/15 08:49:55;;;;;;;1.70;1.60;;;43.90;32.70;;;;;;916641;152;26267;-78
2023/05/15 08:52:22;;;;;;;1.60;1.50;;;44.00;32.10;;;;;;935132;149;26299;-78
2023/05/15 08:54:49;;;;;;;1.67;1.57;;;44.20;32.00;;;;;;934908;149;26367;-78
2023/05/15 08:57:15;;;;;;;1.55;1.45;;;44.30;31.70;;;;;;917499;152;26352;-78
2023/05/15 08:59:41;;;;;;;1.75;1.65;;;44.40;31.50;;;;;;912816;152;26389;-78
2023/05/15 09:02:08;;;;;;;1.50;1.42;;;44.60;31.80;;;;;;911490;153;26295;-79
2023/05/15 09:04:35;;;;;;;1.60;1.50;;;44.70;30.80;;;;;;933722;149;26269;-79
2023/05/15 09:07:01;;;;;;;1.65;1.55;;;44.70;30.60;;;;;;911585;152;26292;-79
2023/05/15 09:09:28;;;;;;;1.67;1.57;;;44.70;30.30;;;;;;917817;152;26301;-79
2023/05/15 09:11:54;;;;;;;1.62;1.52;;;44.80;30.00;;;;;;934336;150;26285;-79
2023/05/15 09:14:21;;;;;;;3.52;1.80;;;44.70;29.80;;;;;;911030;153;26463;-79
2023/05/15 09:16:49;;;;;;;1.72;1.62;;;44.70;29.70;;;;;;917205;153;26239;-79
2023/05/15 09:19:14;;;;;;;3.27;1.67;;;44.70;29.40;;;;;;913953;153;26364;-78
2023/05/15 09:21:41;;;;;;;1.60;1.50;;;44.50;29.00;;;;;;915620;153;26240;-79
2023/05/15 09:24:22;;;;;;;2.30;1.60;;;44.30;29.00;;;;;;918313;153;26310;-79
2023/05/15 09:26:46;;;;;;;1.75;1.65;;;43.90;28.90;;;;;;916019;153;26392;-79
2023/05/15 09:29:16;;;;;;;1.80;1.70;;;43.60;29.10;;;;;;915626;153;26365;-79
2023/05/15 09:31:42;;;;;;;1.77;1.67;;;43.20;28.80;;;;;;916931;153;26259;-79
2023/05/15 09:34:09;;;;;;;1.98;1.72;;;42.80;29.00;;;;;;934358;149;26291;-79
2023/05/15 09:36:35;;;;;;;1.75;1.65;;;42.40;28.80;;;;;;933912;149;26325;-79
2023/05/15 09:39:02;;;;;;;1.67;1.57;;;42.00;28.90;;;;;;918510;152;26215;-79
2023/05/15 09:41:28;;;;;;;3.85;1.77;;;41.60;28.80;;;;;;934731;149;26193;-79
2023/05/15 09:43:55;;;;;;;1.82;1.72;;;41.20;29.00;;;;;;935554;149;26265;-79
2023/05/15 09:46:24;;;;;;;1.82;1.60;;;40.80;28.90;;;;;;912118;153;26310;-79
2023/05/15 09:48:54;;;;;;;1.98;1.82;;;40.50;29.10;;;;;;935230;149;26222;-79
2023/05/15 09:51:20;;;;;;;2.45;1.55;;;40.00;29.20;;;;;;920472;152;26351;-79
2023/05/15 09:53:49;;;;;;;1.85;1.60;;;39.70;29.60;;;;;;934919;149;26379;-79
2023/05/15 09:56:16;;;;;;;1.62;1.52;;;39.40;29.70;;;;;;934147;149;26377;-79
2023/05/15 09:59:01;;;;;;;1.90;1.80;;;39.10;29.80;;;;;;934343;149;26230;-79
2023/05/15 10:01:27;;;;;;;2.08;1.82;;;38.80;29.40;;;;;;934031;149;26257;-79
2023/05/15 10:03:57;;;;;;;2.33;1.90;;;38.40;29.00;;;;;;935071;149;26330;-79
2023/05/15 10:06:23;;;;;;;2.20;2.00;;;37.90;28.70;;;;;;918256;152;27463;-79
2023/05/15 10:08:53;;;;;;;1.75;1.65;;;37.30;28.90;;;;;;923730;152;26391;-79
2023/05/15 10:11:20;;;;;;;1.85;1.75;;;36.50;28.90;;;;;;912866;153;27409;-78
2023/05/15 10:13:45;;;;;;;3.00;2.17;;;35.80;29.00;;;;;;935413;149;26289;-76
2023/05/15 10:16:12;;;;;;;4.00;1.95;;;35.20;29.50;;;;;;947265;148;27325;-77
2023/05/15 10:18:39;;;;;;;2.20;1.87;;;34.70;29.70;;;;;;946962;149;27397;-76
2023/05/15 10:21:07;;;;;;;2.10;2.00;;;34.30;30.00;;;;;;947412;148;27438;-76
2023/05/15 10:23:32;;;;;;;1.98;1.87;;;33.90;30.10;;;;;;930395;151;27485;-77
2023/05/15 10:26:04;;;;;;;2.75;2.30;;;33.70;30.00;;;;;;921931;151;27664;-76
2023/05/15 10:28:31;;;;;;;2.52;2.30;;;33.40;30.30;;;;;;930113;151;27341;-76
2023/05/15 10:30:57;;;;;;;2.25;2.02;;;33.10;30.30;;;;;;928475;151;27425;-76
2023/05/15 10:33:24;;;;;;;6.83;2.10;;;32.80;30.20;;;;;;949430;148;27355;-76
2023/05/15 10:35:50;;;;;;;2.52;2.33;;;32.50;30.50;;;;;;930391;151;27451;-76
2023/05/15 10:38:17;;;;;;;2.37;2.22;;;32.20;30.80;;;;;;927194;152;27273;-76
2023/05/15 10:40:44;;;;;;;3.15;2.22;;;31.90;31.10;;;;;;927419;152;27420;-77
2023/05/15 10:43:10;;;;;;;2.52;2.33;;;31.70;31.20;;;;;;927346;152;27489;-76
2023/05/15 10:45:37;;;;;;;3.45;2.10;;;31.50;31.40;;;;;;929726;151;27460;-76
2023/05/15 10:48:04;;;;;;;2.30;2.10;;;31.20;31.60;;;;;;947580;148;27894;-76
2023/05/15 10:50:30;;;;;;;4.12;2.30;;;30.90;31.80;;;;;;946315;148;27378;-76
2023/05/15 10:52:57;;;;;;;2.15;2.05;;;30.70;32.10;;;;;;946403;148;27450;-76
2023/05/15 10:55:23;;;;;;;2.10;2.00;;;30.50;32.50;;;;;;947054;149;27445;-76
2023/05/15 10:57:50;;;;;;;2.12;2.02;;;30.20;32.90;;;;;;946814;148;27414;-76
2023/05/15 11:00:22;;;;;;;2.02;1.92;;;29.90;33.40;;;;;;947359;148;27249;-76
2023/05/15 11:02:52;;;;;;;2.75;1.67;;;29.60;33.80;;;;;;946149;148;27340;-76
2023/05/15 11:05:16;;;;;;;2.80;2.37;;;29.30;33.90;;;;;;947183;148;27348;-76
2023/05/15 11:07:42;;;;;;;1.90;1.80;;;29.10;34.30;;;;;;928286;151;27374;-76
2023/05/15 11:10:27;;;;;;;1.85;1.75;;;28.80;34.60;;;;;;927755;151;27395;-76
2023/05/15 11:12:59;;;;;;;2.60;2.35;;;28.60;35.00;;;;;;930862;151;27459;-76
2023/05/15 11:15:26;;;;;;;1.98;1.87;;;28.40;35.90;;;;;;940661;148;27399;-76
2023/05/15 11:18:02;;;;;;;1.90;1.80;;;28.30;36.30;;;;;;911628;152;27403;-76
2023/05/15 11:20:50;;;;;;;2.10;1.98;;;28.10;35.90;;;;;;918782;152;27332;-76
2023/05/15 11:23:16;;;;;;;2.22;1.90;;;28.00;35.60;;;;;;934298;149;27302;-76
2023/05/15 11:25:42;;;;;;;1.80;1.70;;;27.80;35.60;;;;;;911224;152;27339;-76
2023/05/15 11:28:09;;;;;;;1.72;1.62;;;27.70;35.70;;;;;;912111;153;27881;-76
2023/05/15 11:30:38;;;;;;;3.80;1.80;;;27.60;35.90;;;;;;932521;150;27673;-76
2023/05/15 11:33:07;;;;;;;1.90;1.80;;;27.50;36.10;;;;;;917901;152;27301;-76
2023/05/15 11:35:44;;;;;;;4.10;1.82;;;27.40;36.30;;;;;;926156;152;27651;-76
2023/05/15 11:38:09;;;;;;;3.15;2.05;;;27.40;36.70;;;;;;912164;153;27436;-76
2023/05/15 11:40:48;;;;;;;1.45;1.45;;;27.40;36.90;;;;;;933859;149;27343;-76
2023/05/15 11:43:24;;;;;;;3.52;2.08;;;27.40;37.20;;;;;;934252;149;27308;-76
2023/05/15 11:46:02;;;;;;;2.00;1.90;;;27.30;37.00;;;;;;934914;149;27351;-76
2023/05/15 11:48:46;;;;;;;2.42;2.20;;;27.30;37.10;;;;;;934735;150;27463;-76
2023/05/15 11:51:17;;;;;;;2.20;2.10;;;27.30;37.60;;;;;;933700;149;27329;-76
2023/05/15 11:53:43;;;;;;;2.58;2.37;;;27.20;37.80;;;;;;933285;149;27292;-76
2023/05/15 11:56:22;;;;;;;2.67;2.47;;;27.10;38.00;;;;;;933830;149;27368;-76
2023/05/15 11:58:48;;;;;;;3.45;2.47;;;27.00;38.20;;;;;;933210;149;27357;-76
2023/05/15 12:01:15;;;;;;;2.52;2.27;;;26.90;38.30;;;;;;934284;149;27457;-76
2023/05/15 12:03:42;;;;;;;2.75;2.35;;;26.80;38.30;;;;;;933401;149;27438;-76
2023/05/15 12:06:08;;;;;;;2.30;2.10;;;26.60;38.30;;;;;;933758;149;27403;-76
2023/05/15 12:08:36;;;;;;;2.72;2.37;;;26.60;38.60;;;;;;933600;149;27344;-76
2023/05/15 12:11:01;;;;;;;2.72;2.52;;;26.50;38.80;;;;;;934200;149;27340;-76
2023/05/15 12:13:28;;;;;;;3.00;2.62;;;26.50;39.10;;;;;;933654;149;27298;-76
2023/05/15 12:15:55;;;;;;;2.65;2.45;;;26.50;39.20;;;;;;942529;147;27383;-75
2023/05/15 12:18:21;;;;;;;2.42;2.22;;;26.50;39.30;;;;;;953391;147;27343;-75
2023/05/15 12:20:48;;;;;;;2.80;2.60;;;26.50;39.40;;;;;;953569;147;27363;-75
2023/05/15 12:23:14;;;;;;;2.92;2.72;;;26.60;39.50;;;;;;952819;147;27300;-75
2023/05/15 12:25:41;;;;;;;2.80;2.60;;;26.70;39.90;;;;;;952911;147;27316;-75
2023/05/15 12:28:07;;;;;;;3.17;2.87;;;26.90;40.20;;;;;;952911;147;27366;-75
2023/05/15 12:30:34;;;;;;;3.08;2.77;;;27.00;40.40;;;;;;952936;147;27351;-75
2023/05/15 12:33:01;;;;;;;3.62;3.33;;;27.20;40.30;;;;;;952586;147;27259;-75
2023/05/15 12:35:27;;;;;;;2.83;2.62;;;27.30;39.80;;;;;;951000;148;27316;-75
2023/05/15 12:37:54;;;;;;;2.92;2.72;;;27.30;39.00;;;;;;953993;147;27380;-75
2023/05/15 12:40:20;;;;;;;2.90;2.70;;;27.30;38.50;;;;;;953774;147;27426;-75
2023/05/15 12:42:47;;;;;;;3.40;3.20;;;27.20;38.30;;;;;;953275;147;27366;-75
2023/05/15 12:45:14;;;;;;;3.10;2.90;;;27.00;38.20;;;;;;951077;147;27344;-75
2023/05/15 12:47:40;;;;;;;2.98;2.62;;;26.80;38.30;;;;;;935809;150;27276;-75
2023/05/15 12:50:16;;;;;;;2.77;2.58;;;26.50;38.60;;;;;;932633;151;27443;-75